Time;durP1;ratioP1;P1;durP2;ratioP2;P2;SDS_P1;SDS_P2;PMS_P1;PMS_P2;Temp;Humidity;BMP_temperature;BMP_pressure;BME280_temperature;BME280_humidity;BME280_pressure;Samples;Min_cycle;Max_cycle;Signal;HPM_P1;HPM_P2
2023/11/16 00:00:58;;;;;;;1.45;0.98;;;;;;;;;;10475089;28;20087;-72
2023/11/16 00:06:10;;;;;;;0.95;0.75;;;;;;;;;;10492125;28;20102;-75
2023/11/16 00:11:11;;;;;;;4.03;1.40;;;;;;;;;;10482783;28;20020;-77
2023/11/16 00:16:17;;;;;;;0.75;0.75;;;;;;;;;;10498968;28;20037;-79
2023/11/16 00:21:17;;;;;;;1.30;0.90;;;;;;;;;;10481227;28;20123;-77
2023/11/16 00:26:18;;;;;;;0.45;0.45;;;;;;;;;;10497343;28;20017;-77
2023/11/16 00:31:19;;;;;;;1.42;1.33;;;;;;;;;;10487643;28;20055;-77
2023/11/16 00:36:21;;;;;;;1.25;0.80;;;;;;;;;;10497474;28;20291;-78
2023/11/16 00:41:22;;;;;;;1.58;0.93;;;;;;;;;;10501193;28;20021;-77
2023/11/16 00:46:23;;;;;;;2.05;1.20;;;;;;;;;;10500797;28;20051;-77
2023/11/16 00:51:23;;;;;;;1.10;0.87;;;;;;;;;;10499582;28;20093;-78
2023/11/16 00:56:23;;;;;;;1.53;1.10;;;;;;;;;;10499612;28;20253;-77
2023/11/16 01:01:26;;;;;;;1.83;1.20;;;;;;;;;;10492659;28;20215;-78
2023/11/16 01:06:27;;;;;;;1.38;0.95;;;;;;;;;;10495521;28;20032;-78
2023/11/16 01:11:27;;;;;;;4.32;1.15;;;;;;;;;;10499485;28;20051;-78
2023/11/16 01:16:40;;;;;;;2.53;0.97;;;;;;;;;;10479311;28;20024;-77
2023/11/16 01:21:54;;;;;;;2.08;1.05;;;;;;;;;;10498690;28;20266;-77
2023/11/16 01:26:59;;;;;;;2.72;1.60;;;;;;;;;;10498413;28;20146;-76
2023/11/16 01:31:59;;;;;;;1.63;1.05;;;;;;;;;;10499939;28;20037;-77
2023/11/16 01:37:03;;;;;;;1.33;0.98;;;;;;;;;;10518869;28;20024;-77
2023/11/16 01:42:04;;;;;;;1.92;1.10;;;;;;;;;;10506058;28;20246;-77
2023/11/16 01:47:08;;;;;;;2.33;1.10;;;;;;;;;;10505582;28;20036;-77
2023/11/16 01:52:09;;;;;;;3.28;1.20;;;;;;;;;;10505116;28;20056;-77
2023/11/16 01:57:10;;;;;;;2.22;1.35;;;;;;;;;;10487308;28;20036;-77
2023/11/16 02:02:11;;;;;;;1.33;1.13;;;;;;;;;;10505361;28;20084;-78
2023/11/16 02:07:11;;;;;;;1.92;1.15;;;;;;;;;;10507896;28;20028;-77
2023/11/16 02:12:12;;;;;;;1.67;0.80;;;;;;;;;;10506077;28;20319;-76
2023/11/16 02:17:12;;;;;;;1.88;0.95;;;;;;;;;;10504955;28;20044;-77
2023/11/16 02:22:13;;;;;;;1.53;0.97;;;;;;;;;;10504688;28;20021;-78
2023/11/16 02:27:13;;;;;;;1.30;0.93;;;;;;;;;;10504465;28;20023;-77
2023/11/16 02:32:15;;;;;;;0.88;0.80;;;;;;;;;;10502397;28;20200;-77
2023/11/16 02:37:15;;;;;;;1.30;1.10;;;;;;;;;;10507080;28;20204;-78
2023/11/16 02:42:15;;;;;;;1.37;1.00;;;;;;;;;;10503697;28;20079;-78
2023/11/16 02:47:16;;;;;;;1.17;0.98;;;;;;;;;;10502033;28;20318;-78
2023/11/16 02:52:16;;;;;;;2.77;1.30;;;;;;;;;;10503116;28;20497;-76
2023/11/16 02:57:17;;;;;;;1.92;1.17;;;;;;;;;;10502588;28;20033;-77
2023/11/16 03:02:18;;;;;;;3.05;1.05;;;;;;;;;;10485033;28;20155;-78
2023/11/16 03:07:18;;;;;;;2.15;1.50;;;;;;;;;;10502327;28;20035;-77
2023/11/16 03:12:21;;;;;;;2.35;1.13;;;;;;;;;;10502132;28;20268;-77
2023/11/16 03:17:22;;;;;;;2.83;1.60;;;;;;;;;;10502048;28;20036;-76
2023/11/16 03:22:23;;;;;;;2.25;1.23;;;;;;;;;;10484093;28;20032;-76
2023/11/16 03:27:23;;;;;;;1.90;1.10;;;;;;;;;;10501178;28;20047;-77
2023/11/16 03:32:23;;;;;;;1.30;1.05;;;;;;;;;;10484216;28;20047;-78
2023/11/16 03:37:23;;;;;;;1.20;1.00;;;;;;;;;;10501416;28;20306;-78
2023/11/16 03:42:24;;;;;;;2.38;1.83;;;;;;;;;;10501632;28;20047;-77
2023/11/16 03:47:24;;;;;;;3.67;1.48;;;;;;;;;;10501200;28;20032;-77
2023/11/16 03:52:24;;;;;;;1.45;1.30;;;;;;;;;;10500563;28;20059;-76
2023/11/16 03:57:25;;;;;;;2.42;1.30;;;;;;;;;;10500475;28;20028;-77
2023/11/16 04:02:26;;;;;;;3.53;1.42;;;;;;;;;;10482710;28;20029;-77
2023/11/16 04:07:26;;;;;;;1.80;1.65;;;;;;;;;;10500799;28;20087;-76
2023/11/16 04:12:26;;;;;;;2.25;1.27;;;;;;;;;;10481913;28;20502;-76
2023/11/16 04:17:27;;;;;;;1.70;1.23;;;;;;;;;;10499982;28;20027;-76
2023/11/16 04:22:29;;;;;;;3.13;1.92;;;;;;;;;;10484650;28;20037;-78
2023/11/16 04:27:29;;;;;;;2.83;1.80;;;;;;;;;;10512603;28;20028;-77
2023/11/16 04:32:30;;;;;;;8.05;2.47;;;;;;;;;;10501056;28;20040;-78
2023/11/16 04:37:32;;;;;;;2.17;1.58;;;;;;;;;;10483799;28;20584;-78
2023/11/16 04:42:33;;;;;;;3.33;1.40;;;;;;;;;;10501131;28;20063;-77
2023/11/16 04:47:37;;;;;;;5.05;2.00;;;;;;;;;;10499626;28;20036;-78
2023/11/16 04:52:37;;;;;;;2.65;1.58;;;;;;;;;;10500899;28;20311;-77
2023/11/16 04:57:38;;;;;;;2.97;1.63;;;;;;;;;;10498774;28;20032;-77
2023/11/16 05:02:38;;;;;;;4.35;1.55;;;;;;;;;;10482520;28;20028;-79
2023/11/16 05:07:38;;;;;;;2.47;1.45;;;;;;;;;;10503063;28;20322;-77
2023/11/16 05:12:39;;;;;;;2.85;1.75;;;;;;;;;;10506894;28;20032;-76
2023/11/16 05:22:58;;;;;;;2.05;1.45;;;;;;;;;;10506378;28;20100;-77
2023/11/16 05:27:59;;;;;;;3.50;1.80;;;;;;;;;;10507022;28;20222;-77
2023/11/16 05:33:00;;;;;;;2.08;1.73;;;;;;;;;;10503908;28;20097;-78
2023/11/16 05:38:00;;;;;;;1.95;1.75;;;;;;;;;;10503547;28;20302;-77
2023/11/16 05:43:02;;;;;;;2.38;1.60;;;;;;;;;;10506197;28;20034;-73
2023/11/16 05:48:03;;;;;;;5.47;2.25;;;;;;;;;;10466627;28;20029;-75
2023/11/16 05:53:03;;;;;;;7.47;2.10;;;;;;;;;;10501559;28;20092;-74
2023/11/16 05:58:06;;;;;;;4.03;1.55;;;;;;;;;;10487538;28;20028;-74
2023/11/16 06:03:08;;;;;;;2.97;1.15;;;;;;;;;;10482989;28;20021;-75
2023/11/16 06:08:08;;;;;;;2.15;1.17;;;;;;;;;;10499075;28;20028;-75
2023/11/16 06:13:10;;;;;;;2.60;1.20;;;;;;;;;;10499242;28;20310;-74
2023/11/16 06:18:10;;;;;;;2.58;1.23;;;;;;;;;;10500946;28;20036;-74
2023/11/16 06:23:11;;;;;;;2.28;1.05;;;;;;;;;;10503944;28;20064;-75
2023/11/16 06:28:12;;;;;;;1.25;1.00;;;;;;;;;;10503462;28;20337;-74
2023/11/16 06:33:12;;;;;;;4.13;1.10;;;;;;;;;;10503085;28;20216;-74
2023/11/16 06:38:13;;;;;;;2.03;1.10;;;;;;;;;;10503265;28;20326;-74
2023/11/16 06:43:13;;;;;;;1.73;1.17;;;;;;;;;;10503473;28;20115;-74
2023/11/16 06:48:15;;;;;;;3.33;1.05;;;;;;;;;;10502457;28;20028;-74
2023/11/16 06:53:16;;;;;;;4.68;1.30;;;;;;;;;;10502879;28;20025;-75
2023/11/16 06:58:17;;;;;;;7.10;1.20;;;;;;;;;;10502518;28;20304;-75
2023/11/16 07:03:17;;;;;;;5.00;1.67;;;;;;;;;;10484316;28;20020;-75
2023/11/16 07:08:21;;;;;;;4.18;1.90;;;;;;;;;;10502017;28;20057;-76
2023/11/16 07:13:23;;;;;;;3.30;1.30;;;;;;;;;;10501992;28;20025;-75
2023/11/16 07:18:23;;;;;;;6.50;1.70;;;;;;;;;;10501543;28;20235;-76
2023/11/16 07:23:25;;;;;;;3.50;1.10;;;;;;;;;;10501591;28;20040;-75
2023/11/16 07:28:26;;;;;;;3.88;1.42;;;;;;;;;;10501273;28;20402;-74
2023/11/16 07:33:26;;;;;;;10.73;1.80;;;;;;;;;;10482101;28;20327;-75
2023/11/16 07:38:28;;;;;;;6.97;2.20;;;;;;;;;;10501203;28;20059;-75
2023/11/16 07:43:28;;;;;;;3.08;1.10;;;;;;;;;;10500864;28;20278;-74
2023/11/16 07:48:30;;;;;;;3.03;1.20;;;;;;;;;;10495837;28;20043;-74
2023/11/16 07:53:30;;;;;;;2.85;1.17;;;;;;;;;;10495998;28;20238;-74
2023/11/16 07:58:33;;;;;;;3.80;1.13;;;;;;;;;;10477530;28;20060;-73
2023/11/16 08:03:43;;;;;;;2.17;1.10;;;;;;;;;;10510451;28;20270;-73
2023/11/16 08:08:45;;;;;;;2.08;0.85;;;;;;;;;;10494555;28;20040;-74
2023/11/16 08:13:45;;;;;;;3.55;1.70;;;;;;;;;;10492410;28;20272;-72
2023/11/16 08:18:46;;;;;;;6.07;1.70;;;;;;;;;;10492198;28;20036;-73
2023/11/16 08:23:48;;;;;;;3.78;1.10;;;;;;;;;;10490957;28;20045;-73
2023/11/16 08:28:48;;;;;;;2.03;1.10;;;;;;;;;;10491972;28;20032;-73
2023/11/16 08:33:49;;;;;;;4.38;1.80;;;;;;;;;;10491626;28;20040;-72
2023/11/16 08:38:50;;;;;;;5.25;1.77;;;;;;;;;;10492713;28;20024;-71
2023/11/16 08:43:50;;;;;;;1.38;0.80;;;;;;;;;;10481738;28;20227;-71
2023/11/16 08:48:51;;;;;;;5.10;1.52;;;;;;;;;;10500861;28;20041;-70
2023/11/16 08:53:55;;;;;;;4.63;0.95;;;;;;;;;;10500343;28;20032;-70
2023/11/16 08:58:56;;;;;;;1.85;0.70;;;;;;;;;;10483081;28;20613;-72
2023/11/16 09:03:57;;;;;;;3.78;1.33;;;;;;;;;;10517439;28;20028;-71
2023/11/16 09:09:08;;;;;;;1.98;0.82;;;;;;;;;;10500662;28;20032;-71
2023/11/16 09:14:09;;;;;;;1.77;0.50;;;;;;;;;;10503677;28;20113;-70
2023/11/16 09:19:11;;;;;;;1.73;0.82;;;;;;;;;;10500943;28;20029;-69
2023/11/16 09:24:11;;;;;;;2.50;0.52;;;;;;;;;;10501500;28;20040;-70
2023/11/16 09:29:12;;;;;;;3.87;0.83;;;;;;;;;;10500527;28;20033;-71
2023/11/16 09:34:16;;;;;;;1.08;0.60;;;;;;;;;;10500356;28;20324;-70
2023/11/16 09:39:16;;;;;;;1.67;0.70;;;;;;;;;;10474540;28;20338;-70
2023/11/16 09:44:17;;;;;;;5.53;2.63;;;;;;;;;;10510664;28;20055;-70
2023/11/16 09:49:32;;;;;;;10.88;3.72;;;;;;;;;;10499150;28;20032;-72
2023/11/16 09:54:32;;;;;;;2.53;1.17;;;;;;;;;;10499385;28;20074;-70
2023/11/16 09:59:42;;;;;;;2.58;0.68;;;;;;;;;;10481464;28;20086;-70
2023/11/16 10:04:43;;;;;;;0.80;0.50;;;;;;;;;;10498822;28;20037;-71
2023/11/16 10:09:44;;;;;;;1.65;1.52;;;;;;;;;;10499060;28;20338;-72
2023/11/16 10:14:51;;;;;;;3.17;1.00;;;;;;;;;;10495315;28;20222;-70
2023/11/16 10:19:51;;;;;;;1.63;0.90;;;;;;;;;;10503195;28;20034;-70
2023/11/16 10:24:51;;;;;;;0.93;0.50;;;;;;;;;;10497228;28;20056;-71
2023/11/16 10:29:52;;;;;;;1.40;0.60;;;;;;;;;;10497027;28;20033;-70
2023/11/16 10:34:52;;;;;;;5.53;0.77;;;;;;;;;;10498454;28;20235;-71
2023/11/16 10:39:52;;;;;;;2.78;1.00;;;;;;;;;;10499919;28;20040;-71
2023/11/16 10:44:53;;;;;;;2.20;0.47;;;;;;;;;;10497278;28;20091;-71
2023/11/16 10:49:53;;;;;;;2.30;0.60;;;;;;;;;;10496399;28;20290;-70
2023/11/16 10:54:55;;;;;;;3.03;0.70;;;;;;;;;;10496333;28;20122;-70
2023/11/16 10:59:56;;;;;;;5.18;0.47;;;;;;;;;;10502634;28;20098;-72
2023/11/16 11:04:56;;;;;;;2.45;0.60;;;;;;;;;;10509704;28;20066;-72
2023/11/16 11:09:56;;;;;;;2.42;0.60;;;;;;;;;;10495753;28;20476;-70
2023/11/16 11:14:57;;;;;;;1.20;0.40;;;;;;;;;;10495297;28;20074;-71
2023/11/16 11:20:00;;;;;;;0.93;0.38;;;;;;;;;;10495109;28;20234;-71
2023/11/16 11:25:01;;;;;;;0.80;0.50;;;;;;;;;;10510553;28;20028;-70
2023/11/16 11:30:11;;;;;;;1.38;0.55;;;;;;;;;;10476405;28;20044;-70
2023/11/16 11:35:12;;;;;;;0.85;0.40;;;;;;;;;;10493476;28;20410;-71
2023/11/16 11:40:14;;;;;;;0.93;0.52;;;;;;;;;;10510214;28;20032;-70
2023/11/16 11:45:14;;;;;;;5.15;1.10;;;;;;;;;;10507540;28;20199;-70
2023/11/16 11:50:16;;;;;;;0.90;0.57;;;;;;;;;;10491032;28;20461;-70
2023/11/16 11:55:17;;;;;;;2.30;0.80;;;;;;;;;;10489703;28;20040;-71
2023/11/16 12:00:18;;;;;;;4.10;0.85;;;;;;;;;;10492104;28;20032;-70
2023/11/16 12:05:18;;;;;;;0.90;0.70;;;;;;;;;;10494175;28;20036;-70
2023/11/16 12:10:18;;;;;;;4.63;0.80;;;;;;;;;;10494240;28;20286;-71
2023/11/16 12:15:18;;;;;;;1.08;0.70;;;;;;;;;;10495157;28;20047;-71
2023/11/16 12:20:19;;;;;;;2.10;1.23;;;;;;;;;;10495913;28;20126;-71
2023/11/16 12:25:20;;;;;;;2.72;1.27;;;;;;;;;;10494689;28;20032;-71
2023/11/16 12:30:20;;;;;;;2.50;1.25;;;;;;;;;;10494336;28;20560;-71
2023/11/16 12:35:21;;;;;;;4.47;1.27;;;;;;;;;;10495588;28;20032;-71
2023/11/16 12:40:21;;;;;;;2.57;1.10;;;;;;;;;;10495968;28;20043;-71
2023/11/16 12:45:21;;;;;;;2.20;0.82;;;;;;;;;;10495359;28;20426;-70
2023/11/16 12:50:22;;;;;;;2.17;0.98;;;;;;;;;;10494069;28;20334;-71
2023/11/16 12:55:23;;;;;;;4.63;1.73;;;;;;;;;;10496222;28;20040;-70
2023/11/16 13:00:24;;;;;;;3.33;1.42;;;;;;;;;;10495051;28;20024;-71
2023/11/16 13:05:24;;;;;;;4.32;1.15;;;;;;;;;;10495508;28;20036;-70
2023/11/16 13:10:26;;;;;;;2.70;1.20;;;;;;;;;;10494975;28;20096;-70
2023/11/16 13:15:26;;;;;;;2.38;1.10;;;;;;;;;;10476655;28;20060;-70
2023/11/16 13:20:27;;;;;;;3.75;1.05;;;;;;;;;;10493802;28;20039;-71
2023/11/16 13:25:27;;;;;;;3.45;1.02;;;;;;;;;;10475957;28;20039;-71
2023/11/16 13:30:27;;;;;;;1.75;1.30;;;;;;;;;;10499582;28;20103;-70
2023/11/16 13:35:28;;;;;;;3.70;1.02;;;;;;;;;;10502082;28;20099;-71
2023/11/16 13:40:29;;;;;;;6.72;1.50;;;;;;;;;;10502423;28;20024;-71
2023/11/16 13:45:29;;;;;;;3.65;1.25;;;;;;;;;;10517376;28;20307;-71
2023/11/16 13:50:29;;;;;;;3.22;1.25;;;;;;;;;;10485507;28;20043;-71
2023/11/16 13:55:31;;;;;;;6.43;1.08;;;;;;;;;;10503394;28;20036;-71
2023/11/16 14:00:31;;;;;;;7.68;1.85;;;;;;;;;;10484194;28;20363;-71
2023/11/16 14:05:32;;;;;;;3.63;1.00;;;;;;;;;;10501824;28;20086;-71
2023/11/16 14:10:32;;;;;;;6.10;1.50;;;;;;;;;;10500113;28;20067;-70
2023/11/16 14:15:32;;;;;;;2.83;1.05;;;;;;;;;;10500811;28;20319;-71
2023/11/16 14:20:33;;;;;;;7.07;1.13;;;;;;;;;;10500119;28;20025;-71
2023/11/16 14:25:33;;;;;;;2.37;1.27;;;;;;;;;;10500780;28;20035;-71
2023/11/16 14:30:34;;;;;;;4.40;1.50;;;;;;;;;;10499580;28;20024;-70
2023/11/16 14:35:34;;;;;;;2.35;1.30;;;;;;;;;;10498557;28;20040;-71
2023/11/16 14:40:34;;;;;;;6.13;1.50;;;;;;;;;;10481659;28;20259;-70
2023/11/16 14:45:35;;;;;;;9.75;1.30;;;;;;;;;;10498302;28;20059;-70
2023/11/16 14:50:35;;;;;;;7.50;1.80;;;;;;;;;;10499948;28;20032;-71
2023/11/16 14:55:35;;;;;;;3.47;1.33;;;;;;;;;;10499969;28;20298;-69
2023/11/16 15:00:36;;;;;;;2.80;1.40;;;;;;;;;;10499228;28;20251;-70
2023/11/16 15:05:36;;;;;;;2.93;1.40;;;;;;;;;;10498558;28;20032;-68
2023/11/16 15:10:37;;;;;;;4.78;1.75;;;;;;;;;;10494761;28;20369;-69
2023/11/16 15:15:40;;;;;;;1.80;1.33;;;;;;;;;;10495156;28;20078;-68
2023/11/16 15:20:40;;;;;;;3.30;1.55;;;;;;;;;;10505389;28;20036;-69
2023/11/16 15:25:41;;;;;;;8.75;2.58;;;;;;;;;;10471585;28;20036;-69
2023/11/16 15:30:41;;;;;;;5.38;2.63;;;;;;;;;;10493817;28;20210;-69
2023/11/16 15:35:43;;;;;;;12.00;3.40;;;;;;;;;;10494599;28;20025;-68
2023/11/16 15:40:46;;;;;;;5.22;2.85;;;;;;;;;;10478509;28;20489;-69
2023/11/16 15:45:46;;;;;;;5.22;3.17;;;;;;;;;;10494154;28;20119;-68
2023/11/16 15:50:46;;;;;;;5.87;2.50;;;;;;;;;;10494226;28;20039;-69
2023/11/16 15:55:47;;;;;;;5.22;3.25;;;;;;;;;;10509397;28;20366;-68
2023/11/16 16:00:47;;;;;;;11.70;3.63;;;;;;;;;;10493239;28;20049;-68
2023/11/16 16:05:48;;;;;;;8.20;2.97;;;;;;;;;;10494148;28;20048;-67
2023/11/16 16:10:48;;;;;;;7.15;3.13;;;;;;;;;;10494086;28;20047;-69
2023/11/16 16:15:49;;;;;;;15.80;3.90;;;;;;;;;;10492582;28;20039;-68
2023/11/16 16:20:49;;;;;;;10.32;4.95;;;;;;;;;;10490470;28;20315;-68
2023/11/16 16:25:49;;;;;;;26.35;7.07;;;;;;;;;;10493673;28;20068;-68
2023/11/16 16:30:50;;;;;;;21.30;6.25;;;;;;;;;;10491971;28;20042;-69
2023/11/16 16:35:50;;;;;;;43.17;5.90;;;;;;;;;;10492873;28;20306;-68
2023/11/16 16:40:50;;;;;;;16.98;6.15;;;;;;;;;;10497284;28;20036;-69
2023/11/16 16:45:51;;;;;;;16.15;5.97;;;;;;;;;;10496736;28;20070;-69
2023/11/16 16:50:51;;;;;;;13.00;4.78;;;;;;;;;;10496444;28;20047;-68
2023/11/16 16:55:52;;;;;;;15.43;5.35;;;;;;;;;;10496914;28;20378;-69
2023/11/16 17:00:52;;;;;;;5.88;3.78;;;;;;;;;;10497003;28;20036;-69
2023/11/16 17:05:52;;;;;;;13.23;4.30;;;;;;;;;;10502658;28;20029;-69
2023/11/16 17:10:52;;;;;;;7.65;4.13;;;;;;;;;;10504942;28;20263;-69
2023/11/16 17:15:53;;;;;;;13.80;6.68;;;;;;;;;;10504732;28;20036;-68
2023/11/16 17:20:56;;;;;;;13.05;5.57;;;;;;;;;;10504426;28;20095;-68
2023/11/16 17:25:56;;;;;;;15.70;5.10;;;;;;;;;;10512456;28;20032;-70
2023/11/16 17:30:57;;;;;;;12.85;5.57;;;;;;;;;;10503761;28;20353;-68
2023/11/16 17:36:01;;;;;;;19.30;5.72;;;;;;;;;;10503651;28;20036;-69
2023/11/16 17:41:07;;;;;;;14.65;6.00;;;;;;;;;;10504683;28;20021;-68
2023/11/16 17:46:08;;;;;;;23.85;10.40;;;;;;;;;;10503499;28;20322;-68
2023/11/16 17:51:08;;;;;;;15.85;7.35;;;;;;;;;;10503170;28;20075;-68
2023/11/16 17:56:10;;;;;;;24.83;10.02;;;;;;;;;;10503347;28;20024;-68
2023/11/16 18:01:10;;;;;;;15.00;7.65;;;;;;;;;;10500619;28;20230;-69
2023/11/16 18:06:11;;;;;;;20.38;6.93;;;;;;;;;;10502702;28;20048;-69
2023/11/16 18:11:11;;;;;;;20.17;7.30;;;;;;;;;;10503083;28;20055;-68
2023/11/16 18:16:11;;;;;;;20.58;7.30;;;;;;;;;;10501950;28;20333;-69
2023/11/16 18:21:12;;;;;;;21.13;7.50;;;;;;;;;;10502683;28;20032;-69
2023/11/16 18:26:12;;;;;;;14.70;7.43;;;;;;;;;;10502656;28;20025;-68
2023/11/16 18:31:13;;;;;;;18.17;5.50;;;;;;;;;;10501728;28;20416;-68
2023/11/16 18:36:13;;;;;;;17.63;5.75;;;;;;;;;;10515322;28;20025;-68
2023/11/16 18:41:14;;;;;;;13.20;5.20;;;;;;;;;;10499428;28;20044;-68
2023/11/16 18:46:15;;;;;;;17.48;5.63;;;;;;;;;;10499147;28;20132;-70
2023/11/16 18:51:15;;;;;;;14.30;5.88;;;;;;;;;;10498788;28;20318;-68
2023/11/16 18:56:15;;;;;;;18.23;7.30;;;;;;;;;;10500197;28;20031;-69
2023/11/16 19:01:16;;;;;;;18.27;8.90;;;;;;;;;;10499007;28;20107;-70
2023/11/16 19:06:16;;;;;;;27.63;10.18;;;;;;;;;;10498499;28;20024;-71
2023/11/16 19:11:18;;;;;;;18.15;8.32;;;;;;;;;;10499070;28;20222;-71
2023/11/16 19:16:18;;;;;;;21.40;8.70;;;;;;;;;;10480433;28;20078;-71
2023/11/16 19:21:18;;;;;;;18.85;9.48;;;;;;;;;;10498326;28;20082;-70
2023/11/16 19:26:19;;;;;;;21.30;11.10;;;;;;;;;;10497657;28;20071;-70
2023/11/16 19:35:46;;;;;;;12.50;7.97;;;;;;;;;;10595931;27;20728;-70
2023/11/16 19:40:48;;;;;;;21.88;8.52;;;;;;;;;;10576802;28;20024;-70
2023/11/16 19:45:50;;;;;;;21.13;9.80;;;;;;;;;;10576438;28;20026;-71
2023/11/16 19:50:50;;;;;;;19.75;9.95;;;;;;;;;;10576512;28;20032;-71
2023/11/16 19:55:51;;;;;;;25.83;10.13;;;;;;;;;;10576589;28;20053;-70
2023/11/16 20:00:52;;;;;;;27.17;9.98;;;;;;;;;;10572879;28;20228;-70
2023/11/16 20:05:52;;;;;;;19.33;9.35;;;;;;;;;;10569218;28;20207;-76
2023/11/16 20:10:52;;;;;;;14.57;8.20;;;;;;;;;;10552778;28;20046;-72
2023/11/16 20:15:55;;;;;;;11.68;6.63;;;;;;;;;;10558584;28;20023;-71
2023/11/16 20:20:55;;;;;;;16.80;7.55;;;;;;;;;;10549828;28;20237;-73
2023/11/16 20:25:55;;;;;;;13.85;6.20;;;;;;;;;;10555837;28;20024;-74
2023/11/16 20:36:32;;;;;;;18.67;6.85;;;;;;;;;;10533391;28;20282;-75
2023/11/16 20:41:33;;;;;;;14.63;6.72;;;;;;;;;;10543693;28;20533;-74
2023/11/16 20:46:38;;;;;;;13.15;5.55;;;;;;;;;;10533014;28;20071;-75
2023/11/16 20:51:54;;;;;;;8.95;5.00;;;;;;;;;;10509053;28;20039;-75
2023/11/16 20:56:55;;;;;;;7.65;4.15;;;;;;;;;;10509436;28;20039;-74
2023/11/16 21:07:48;;;;;;;8.60;4.40;;;;;;;;;;10513637;28;20473;-74
2023/11/16 21:12:48;;;;;;;6.18;3.45;;;;;;;;;;10511959;28;20095;-72
2023/11/16 21:17:49;;;;;;;8.57;2.78;;;;;;;;;;10524468;28;20024;-74
2023/11/16 21:22:49;;;;;;;8.88;3.40;;;;;;;;;;10532148;28;20061;-74
2023/11/16 21:27:49;;;;;;;7.88;4.32;;;;;;;;;;10520155;28;20077;-72
2023/11/16 21:32:49;;;;;;;10.00;5.53;;;;;;;;;;10522781;28;20066;-75
2023/11/16 21:37:50;;;;;;;15.57;9.15;;;;;;;;;;10522215;28;20306;-78
2023/11/16 21:42:50;;;;;;;14.23;7.32;;;;;;;;;;10546130;28;20020;-78
2023/11/16 21:47:52;;;;;;;14.57;7.77;;;;;;;;;;10546291;28;20225;-77
2023/11/16 21:52:52;;;;;;;13.32;7.80;;;;;;;;;;10545140;28;20011;-78
2023/11/16 21:57:52;;;;;;;15.23;7.53;;;;;;;;;;10544542;28;20024;-78
2023/11/16 22:02:52;;;;;;;10.38;5.72;;;;;;;;;;10522299;28;20318;-78
2023/11/16 22:07:53;;;;;;;7.43;4.65;;;;;;;;;;10545421;28;20100;-78
2023/11/16 22:12:54;;;;;;;8.70;3.58;;;;;;;;;;10544711;28;20318;-77
2023/11/16 22:17:54;;;;;;;10.38;4.10;;;;;;;;;;10543996;28;20039;-77
2023/11/16 22:22:54;;;;;;;8.35;4.43;;;;;;;;;;10544292;28;20039;-77
2023/11/16 22:27:55;;;;;;;6.25;3.53;;;;;;;;;;10542504;28;20019;-77
2023/11/16 22:32:57;;;;;;;5.38;3.60;;;;;;;;;;10540920;28;20054;-78
2023/11/16 22:37:58;;;;;;;7.15;3.40;;;;;;;;;;10543459;28;20047;-77
2023/11/16 22:42:58;;;;;;;5.07;3.70;;;;;;;;;;10542818;28;20306;-77
2023/11/16 22:47:58;;;;;;;4.88;3.42;;;;;;;;;;10542689;28;20087;-77
2023/11/16 22:52:58;;;;;;;8.47;3.73;;;;;;;;;;10542727;28;20024;-76
2023/11/16 22:57:59;;;;;;;8.32;3.55;;;;;;;;;;10542898;28;20016;-78
2023/11/16 23:02:59;;;;;;;7.97;4.07;;;;;;;;;;10500313;28;20351;-78
2023/11/16 23:07:59;;;;;;;5.97;3.67;;;;;;;;;;10542708;28;20073;-77
2023/11/16 23:13:03;;;;;;;5.97;3.55;;;;;;;;;;10555183;28;20351;-77
2023/11/16 23:18:03;;;;;;;7.70;3.78;;;;;;;;;;10569070;28;20038;-77
2023/11/16 23:23:04;;;;;;;7.63;4.30;;;;;;;;;;10542486;28;20023;-77
2023/11/16 23:28:05;;;;;;;6.95;4.75;;;;;;;;;;10542157;28;20095;-78
2023/11/16 23:33:05;;;;;;;5.53;3.85;;;;;;;;;;10541794;28;20049;-77
2023/11/16 23:38:05;;;;;;;6.83;4.00;;;;;;;;;;10542236;28;20016;-78
2023/11/16 23:43:05;;;;;;;9.63;4.43;;;;;;;;;;10541638;28;20032;-77
2023/11/16 23:48:08;;;;;;;6.80;3.85;;;;;;;;;;10541973;28;20348;-77
2023/11/16 23:53:08;;;;;;;5.40;3.83;;;;;;;;;;10542192;28;20039;-78
2023/11/16 23:58:09;;;;;;;8.60;4.60;;;;;;;;;;10541515;28;20214;-78
